createdAt,value
2023-10-21T00:00:09.805Z,23.40
2023-10-21T00:03:12.221Z,27.13
2023-10-21T00:06:14.710Z,29.55
2023-10-21T00:09:19.640Z,25.58
2023-10-21T00:12:21.783Z,25.55
2023-10-21T00:15:24.443Z,25.38
2023-10-21T00:18:27.330Z,22.08
2023-10-21T00:21:29.972Z,25.75
2023-10-21T00:24:32.121Z,28.90
2023-10-21T00:27:34.537Z,18.80
2023-10-21T00:30:36.789Z,24.00
2023-10-21T00:33:42.172Z,32.42
2023-10-21T00:36:44.472Z,26.92
2023-10-21T00:39:47.405Z,27.05
2023-10-21T00:42:49.868Z,32.92
2023-10-21T00:45:52.227Z,23.88
2023-10-21T00:48:54.395Z,35.75
2023-10-21T00:51:57.836Z,27.83
2023-10-21T00:55:03.350Z,34.58
2023-10-21T00:58:05.995Z,26.98
2023-10-21T01:01:09.670Z,35.58
2023-10-21T01:04:14.132Z,30.55
2023-10-21T01:07:18.124Z,25.65
2023-10-21T01:10:20.496Z,36.15
2023-10-21T01:13:22.884Z,23.98
2023-10-21T01:16:25.188Z,29.10
2023-10-21T01:19:27.597Z,24.20
2023-10-21T01:22:29.987Z,23.45
2023-10-21T01:25:33.620Z,20.38
2023-10-21T01:28:35.930Z,17.17
2023-10-21T01:31:38.327Z,19.20
2023-10-21T01:34:40.696Z,13.65
2023-10-21T01:37:44.570Z,18.50
2023-10-21T01:40:47.969Z,15.55
2023-10-21T01:43:50.332Z,14.57
2023-10-21T01:46:52.641Z,14.57
2023-10-21T01:49:54.940Z,13.73
2023-10-21T01:52:57.652Z,15.50
2023-10-21T01:56:03.918Z,13.98
2023-10-21T01:59:07.636Z,13.63
2023-10-21T02:02:10.287Z,16.65
2023-10-21T02:05:12.669Z,11.05
2023-10-21T02:08:15.409Z,9.68
2023-10-21T02:11:23.333Z,9.98
2023-10-21T02:14:25.641Z,10.27
2023-10-21T02:17:28.322Z,13.70
2023-10-21T02:20:30.727Z,9.07
2023-10-21T02:23:33.092Z,15.00
2023-10-21T02:26:35.431Z,10.68
2023-10-21T02:29:38.272Z,11.35
2023-10-21T02:32:47.065Z,12.63
2023-10-21T02:35:56.788Z,15.05
2023-10-21T02:38:59.250Z,12.02
2023-10-21T02:42:01.672Z,11.52
2023-10-21T02:45:04.300Z,15.57
2023-10-21T02:48:07.497Z,14.55
2023-10-21T02:51:19.426Z,19.65
2023-10-21T02:54:21.811Z,16.40
2023-10-21T02:57:24.260Z,19.25
2023-10-21T03:00:27.737Z,18.60
2023-10-21T03:03:30.222Z,14.98
2023-10-21T03:06:32.664Z,15.10
2023-10-21T03:09:35.260Z,16.17
2023-10-21T03:12:38.241Z,19.42
2023-10-21T03:15:40.324Z,13.15
2023-10-21T03:18:43.143Z,7.05
2023-10-21T03:21:46.340Z,11.27
2023-10-21T03:24:48.804Z,12.80
2023-10-21T03:27:51.115Z,9.88
2023-10-21T03:30:58.135Z,10.60
2023-10-21T03:34:00.535Z,13.00
2023-10-21T03:37:03.047Z,8.18
2023-10-21T03:40:07.176Z,10.15
2023-10-21T03:43:12.355Z,10.68
2023-10-21T03:46:16.115Z,10.50
2023-10-21T03:49:19.122Z,11.05
2023-10-21T03:52:21.540Z,11.57
2023-10-21T03:55:23.952Z,10.43
2023-10-21T03:58:26.047Z,11.82
2023-10-21T04:01:28.136Z,9.25
2023-10-21T04:04:30.551Z,11.02
2023-10-21T04:07:32.856Z,11.50
2023-10-21T04:10:35.214Z,13.38
2023-10-21T04:13:37.580Z,12.60
2023-10-21T04:16:45.586Z,12.65
2023-10-21T04:19:48.063Z,12.00
2023-10-21T04:22:50.207Z,10.40
2023-10-21T04:25:52.387Z,12.85
2023-10-21T04:28:54.920Z,16.05
2023-10-21T04:31:57.401Z,17.88
2023-10-21T04:35:00.585Z,13.85
2023-10-21T04:38:02.923Z,13.70
2023-10-21T04:41:08.593Z,13.93
2023-10-21T04:44:15.172Z,16.45
2023-10-21T04:47:17.684Z,13.02
2023-10-21T04:50:19.776Z,13.63
2023-10-21T04:53:22.118Z,11.45
2023-10-21T04:56:26.221Z,15.52
2023-10-21T04:59:28.566Z,11.48
2023-10-21T05:02:30.913Z,15.93
2023-10-21T05:05:35.953Z,13.48
2023-10-21T05:08:38.320Z,15.18
2023-10-21T05:11:40.385Z,18.50
2023-10-21T05:14:42.717Z,16.67
2023-10-21T05:17:44.909Z,19.38
2023-10-21T05:20:47.515Z,14.93
2023-10-21T05:23:50.300Z,13.55
2023-10-21T05:26:53.201Z,16.55
2023-10-21T05:29:55.266Z,18.38
2023-10-21T05:32:57.709Z,21.92
2023-10-21T05:36:01.171Z,19.05
2023-10-21T05:39:06.030Z,16.63
2023-10-21T05:42:08.499Z,22.48
2023-10-21T05:45:11.272Z,17.08
2023-10-21T05:48:13.579Z,19.42
2023-10-21T05:51:15.803Z,18.25
2023-10-21T05:54:18.232Z,15.65
2023-10-21T05:57:20.659Z,18.35
2023-10-21T06:00:23.416Z,20.30
2023-10-21T06:03:25.797Z,17.48
2023-10-21T06:06:28.414Z,16.95
2023-10-21T06:09:31.804Z,16.13
2023-10-21T06:12:34.273Z,18.42
2023-10-21T06:15:36.745Z,14.80
2023-10-21T06:18:39.274Z,15.60
2023-10-21T06:21:41.728Z,19.08
2023-10-21T06:24:44.894Z,17.00
2023-10-21T06:27:47.218Z,17.20
2023-10-21T06:30:49.347Z,19.40
2023-10-21T06:33:51.738Z,16.52
2023-10-21T06:36:54.442Z,24.40
2023-10-21T06:39:56.557Z,21.73
2023-10-21T06:42:59.275Z,16.40
2023-10-21T06:46:01.415Z,15.63
2023-10-21T06:49:04.446Z,14.65
2023-10-21T06:52:07.056Z,12.88
2023-10-21T06:55:09.859Z,17.77
2023-10-21T06:58:13.332Z,13.05
2023-10-21T07:01:15.617Z,9.43
2023-10-21T07:04:19.554Z,12.27
2023-10-21T07:07:21.609Z,14.43
2023-10-21T07:10:24.706Z,10.95
2023-10-21T07:13:27.136Z,9.80
2023-10-21T07:16:29.733Z,18.02
2023-10-21T07:19:31.745Z,11.65
2023-10-21T07:22:33.863Z,12.30
2023-10-21T07:25:37.889Z,10.05
2023-10-21T07:28:40.259Z,15.02
2023-10-21T07:31:44.281Z,10.00
2023-10-21T07:34:46.439Z,8.82
2023-10-21T07:37:48.484Z,12.77
2023-10-21T07:40:51.629Z,10.32
2023-10-21T07:43:53.750Z,8.77
2023-10-21T07:46:56.123Z,9.45
2023-10-21T07:49:58.427Z,6.57
2023-10-21T07:53:00.765Z,10.70
2023-10-21T07:56:03.705Z,9.00
2023-10-21T07:59:06.790Z,13.38
2023-10-21T08:02:08.943Z,8.48
2023-10-21T08:05:11.587Z,7.70
2023-10-21T08:08:14.540Z,12.35
2023-10-21T08:11:16.620Z,8.00
2023-10-21T08:14:19.506Z,10.48
2023-10-21T08:17:21.875Z,9.57
2023-10-21T08:20:25.719Z,8.18
2023-10-21T08:23:28.739Z,8.35
2023-10-21T08:26:32.534Z,9.65
2023-10-21T08:29:35.204Z,12.05
2023-10-21T08:32:38.343Z,10.43
2023-10-21T08:35:40.681Z,10.00
2023-10-21T08:38:43.028Z,13.00
2023-10-21T08:41:45.376Z,8.70
2023-10-21T08:44:49.835Z,5.88
2023-10-21T08:47:57.665Z,8.02
2023-10-21T08:51:00.699Z,8.27
2023-10-21T08:54:06.893Z,10.88
2023-10-21T08:57:10.854Z,11.80
2023-10-21T09:00:13.621Z,12.50
2023-10-21T09:03:16.457Z,9.88
2023-10-21T09:06:19.254Z,7.78
2023-10-21T09:09:28.082Z,12.38
2023-10-21T09:12:30.757Z,8.45
2023-10-21T09:15:39.774Z,9.23
2023-10-21T09:19:06.287Z,15.27
2023-10-21T09:22:21.910Z,14.90
2023-10-21T09:25:24.505Z,14.95
2023-10-21T09:28:26.962Z,20.50
2023-10-21T09:31:42.285Z,14.75
2023-10-21T09:34:44.691Z,8.80
2023-10-21T09:37:47.405Z,13.88
2023-10-21T09:40:50.585Z,12.68
2023-10-21T09:43:54.466Z,12.75
2023-10-21T09:46:58.652Z,16.58
2023-10-21T09:50:06.639Z,9.63
2023-10-21T09:53:12.920Z,15.20
2023-10-21T09:56:18.814Z,13.88
2023-10-21T09:59:23.089Z,14.95
2023-10-21T10:02:27.845Z,13.15
2023-10-21T10:05:32.845Z,13.63
2023-10-21T10:08:36.734Z,12.88
2023-10-21T10:11:40.027Z,9.93
2023-10-21T10:14:42.334Z,13.65
2023-10-21T10:17:49.849Z,12.00
2023-10-21T10:20:53.885Z,16.00
2023-10-21T10:24:04.068Z,8.48
2023-10-21T10:27:09.775Z,10.93
2023-10-21T10:30:20.935Z,17.35
2023-10-21T10:33:26.749Z,10.30
2023-10-21T10:36:30.474Z,15.02
2023-10-21T10:39:39.850Z,10.02
2023-10-21T10:45:44.774Z,15.32
2023-10-21T10:48:50.268Z,11.82
2023-10-21T10:51:52.600Z,18.17
2023-10-21T10:54:55.174Z,12.20
2023-10-21T10:57:58.150Z,16.30
2023-10-21T11:01:01.712Z,14.95
2023-10-21T11:04:04.709Z,16.05
2023-10-21T11:07:06.862Z,13.35
2023-10-21T11:10:09.425Z,14.68
2023-10-21T11:13:11.888Z,14.50
2023-10-21T11:16:14.200Z,13.10
2023-10-21T11:19:17.151Z,11.07
2023-10-21T11:22:27.760Z,11.20
2023-10-21T11:25:31.380Z,14.02
2023-10-21T11:28:33.744Z,11.85
2023-10-21T11:31:37.540Z,14.75
2023-10-21T11:34:40.177Z,9.98
2023-10-21T11:37:44.023Z,12.45
2023-10-21T11:40:47.532Z,13.30
2023-10-21T11:43:53.397Z,14.55
2023-10-21T11:46:59.699Z,12.68
2023-10-21T11:50:02.033Z,8.73
2023-10-21T11:53:07.491Z,13.00
2023-10-21T11:56:28.079Z,11.07
2023-10-21T11:59:52.418Z,11.68
2023-10-21T12:03:01.660Z,12.00
2023-10-21T12:09:27.118Z,11.85
2023-10-21T12:12:35.180Z,10.75
2023-10-21T12:16:05.675Z,15.07
2023-10-21T12:22:47.494Z,9.23
2023-10-21T12:26:07.985Z,9.43
2023-10-21T12:29:28.613Z,8.57
2023-10-21T12:32:49.469Z,12.18
2023-10-21T12:36:14.866Z,14.52
2023-10-21T12:39:17.330Z,11.77
2023-10-21T12:42:27.834Z,10.57
2023-10-21T12:45:36.309Z,10.23
2023-10-21T12:48:38.681Z,11.63
2023-10-21T12:51:41.004Z,8.38
2023-10-21T12:54:45.032Z,12.88
2023-10-21T12:57:47.388Z,9.25
2023-10-21T13:00:49.824Z,9.93
2023-10-21T13:03:52.502Z,10.18
2023-10-21T13:06:55.038Z,11.88
2023-10-21T13:09:57.198Z,9.70
2023-10-21T13:13:02.285Z,7.72
2023-10-21T13:16:05.758Z,10.40
2023-10-21T13:19:08.152Z,11.88
2023-10-21T13:22:10.274Z,8.85
2023-10-21T13:25:19.808Z,10.32
2023-10-21T13:28:24.158Z,7.75
2023-10-21T13:31:26.558Z,13.60
2023-10-21T13:34:29.033Z,9.15
2023-10-21T13:37:34.033Z,9.65
2023-10-21T13:40:38.438Z,10.55
2023-10-21T13:43:40.908Z,8.82
2023-10-21T13:46:43.154Z,8.52
2023-10-21T13:49:45.550Z,7.38
2023-10-21T13:52:48.326Z,11.40
2023-10-21T13:55:50.531Z,11.07
2023-10-21T13:58:56.586Z,10.05
2023-10-21T14:02:01.140Z,8.35
2023-10-21T14:05:11.635Z,9.07
2023-10-21T14:08:26.052Z,10.38
2023-10-21T14:11:28.389Z,10.45
2023-10-21T14:14:31.132Z,9.55
2023-10-21T14:17:35.744Z,8.43
2023-10-21T14:20:42.151Z,11.90
2023-10-21T14:23:44.412Z,11.70
2023-10-21T14:26:47.207Z,10.40
2023-10-21T14:29:49.627Z,13.35
2023-10-21T14:32:51.819Z,7.85
2023-10-21T14:35:56.155Z,9.90
2023-10-21T14:38:58.674Z,6.80
2023-10-21T14:42:01.105Z,15.13
2023-10-21T14:45:05.816Z,12.38
2023-10-21T14:48:11.103Z,9.90
2023-10-21T14:51:13.502Z,8.00
2023-10-21T14:54:15.561Z,10.77
2023-10-21T14:57:17.649Z,8.93
2023-10-21T15:00:24.215Z,8.35
2023-10-21T15:03:26.378Z,11.40
2023-10-21T15:06:30.552Z,10.00
2023-10-21T15:09:33.506Z,9.45
2023-10-21T15:12:36.106Z,13.27
2023-10-21T15:15:38.622Z,10.30
2023-10-21T15:18:41.646Z,15.65
2023-10-21T15:21:43.854Z,12.10
2023-10-21T15:24:46.073Z,11.35
2023-10-21T15:27:53.101Z,10.73
2023-10-21T15:30:55.636Z,12.95
2023-10-21T15:33:58.813Z,9.90
2023-10-21T15:37:01.715Z,14.55
2023-10-21T15:40:04.478Z,10.95
2023-10-21T15:43:06.516Z,8.05
2023-10-21T15:46:10.036Z,8.88
2023-10-21T15:49:12.395Z,13.80
2023-10-21T15:52:14.883Z,10.00
2023-10-21T15:55:17.423Z,12.55
2023-10-21T15:58:19.760Z,13.80
2023-10-21T16:01:22.578Z,15.05
2023-10-21T16:04:25.028Z,13.63
2023-10-21T16:07:28.165Z,16.08
2023-10-21T16:10:31.108Z,13.40
2023-10-21T16:13:36.785Z,13.60
2023-10-21T16:16:40.329Z,13.32
2023-10-21T16:19:42.714Z,15.90
2023-10-21T16:22:48.508Z,15.57
2023-10-21T16:25:51.674Z,22.02
2023-10-21T16:28:54.742Z,19.50
2023-10-21T16:31:57.790Z,16.38
2023-10-21T16:35:01.661Z,23.55
2023-10-21T16:38:05.902Z,14.07
2023-10-21T16:41:10.894Z,16.05
2023-10-21T16:44:13.888Z,16.05
2023-10-21T16:47:17.481Z,17.40
2023-10-21T16:50:21.393Z,13.80
2023-10-21T16:53:25.577Z,14.52
2023-10-21T16:56:29.182Z,14.98
2023-10-21T16:59:33.938Z,18.42
2023-10-21T17:02:38.587Z,16.45
2023-10-21T17:05:42.947Z,13.95
2023-10-21T17:08:46.024Z,15.02
2023-10-21T17:11:50.292Z,15.25
2023-10-21T17:14:54.433Z,18.00
2023-10-21T17:17:58.292Z,14.10
2023-10-21T17:21:02.760Z,13.52
2023-10-21T17:24:08.369Z,12.30
2023-10-21T17:27:12.261Z,17.52
2023-10-21T17:30:17.606Z,15.88
2023-10-21T17:33:19.949Z,15.35
2023-10-21T17:36:23.599Z,13.90
2023-10-21T17:39:27.573Z,16.48
2023-10-21T17:42:30.445Z,13.38
2023-10-21T17:45:33.396Z,13.85
2023-10-21T17:48:37.240Z,13.15
2023-10-21T17:51:41.953Z,13.80
2023-10-21T17:54:45.952Z,18.38
2023-10-21T17:57:49.138Z,18.27
2023-10-21T18:00:53.706Z,16.98
2023-10-21T18:03:57.046Z,17.73
2023-10-21T18:07:00.537Z,18.02
2023-10-21T18:10:05.239Z,16.73
2023-10-21T18:13:09.110Z,19.25
2023-10-21T18:16:13.442Z,16.60
2023-10-21T18:19:17.982Z,20.40
2023-10-21T18:22:22.360Z,25.17
2023-10-21T18:25:26.363Z,20.00
2023-10-21T18:28:30.295Z,21.00
2023-10-21T18:31:34.321Z,20.27
2023-10-21T18:34:40.154Z,18.90
2023-10-21T18:37:47.793Z,19.23
2023-10-21T18:40:51.852Z,20.42
2023-10-21T18:43:56.824Z,20.13
2023-10-21T18:47:00.032Z,19.40
2023-10-21T18:50:02.990Z,20.02
2023-10-21T18:53:05.696Z,16.90
2023-10-21T18:56:12.236Z,19.13
2023-10-21T18:59:15.387Z,20.25
2023-10-21T19:02:20.169Z,16.88
2023-10-21T19:05:23.241Z,18.65
2023-10-21T19:08:26.076Z,20.08
2023-10-21T19:11:29.086Z,21.55
2023-10-21T19:14:33.953Z,19.75
2023-10-21T19:17:36.868Z,18.17
2023-10-21T19:20:40.312Z,17.35
2023-10-21T19:23:43.802Z,16.58
2023-10-21T19:26:47.436Z,16.73
2023-10-21T19:29:56.213Z,17.35
2023-10-21T19:32:59.331Z,16.10
2023-10-21T19:36:05.568Z,33.40
2023-10-21T19:39:08.777Z,15.98
2023-10-21T19:42:13.147Z,22.95
2023-10-21T19:45:17.004Z,17.00
2023-10-21T19:48:20.444Z,11.90
2023-10-21T19:51:24.941Z,12.38
2023-10-21T19:54:29.328Z,10.70
2023-10-21T19:57:33.959Z,18.25
2023-10-21T20:00:37.204Z,5.50
2023-10-21T20:03:41.694Z,8.45
2023-10-21T20:06:44.758Z,10.27
2023-10-21T20:09:47.640Z,8.95
2023-10-21T20:12:51.585Z,10.02
2023-10-21T20:15:55.299Z,18.33
2023-10-21T20:18:58.370Z,20.17
2023-10-21T20:22:00.709Z,18.55
2023-10-21T20:25:04.132Z,22.20
2023-10-21T20:28:06.872Z,18.98
2023-10-21T20:31:10.773Z,16.38
2023-10-21T20:34:13.861Z,20.73
2023-10-21T20:37:16.469Z,19.33
2023-10-21T20:40:18.883Z,17.40
2023-10-21T20:43:23.195Z,21.48
2023-10-21T20:46:25.707Z,18.90
2023-10-21T20:49:28.320Z,23.63
2023-10-21T20:52:30.807Z,24.70
2023-10-21T20:55:40.863Z,23.63
2023-10-21T20:58:43.313Z,20.20
2023-10-21T21:01:45.811Z,23.38
2023-10-21T21:04:48.193Z,27.33
2023-10-21T21:07:53.897Z,21.45
2023-10-21T21:10:56.428Z,20.88
2023-10-21T21:14:00.357Z,21.98
2023-10-21T21:17:05.220Z,14.55
2023-10-21T21:20:08.972Z,15.55
2023-10-21T21:23:15.166Z,15.88
2023-10-21T21:26:17.736Z,14.65
2023-10-21T21:29:20.119Z,19.13
2023-10-21T21:32:23.242Z,15.98
2023-10-21T21:35:25.475Z,15.93
2023-10-21T21:38:28.622Z,16.48
2023-10-21T21:41:30.724Z,19.08
2023-10-21T21:44:33.130Z,14.43
2023-10-21T21:47:37.092Z,18.75
2023-10-21T21:50:40.627Z,20.23
2023-10-21T21:53:42.734Z,15.07
2023-10-21T21:56:45.833Z,17.67
2023-10-21T21:59:48.218Z,21.88
2023-10-21T22:02:51.178Z,17.27
2023-10-21T22:05:56.446Z,23.55
2023-10-21T22:08:58.857Z,22.13
2023-10-21T22:12:01.238Z,22.13
2023-10-21T22:15:03.759Z,23.50
2023-10-21T22:18:06.636Z,24.92
2023-10-21T22:21:10.984Z,29.95
2023-10-21T22:24:13.369Z,25.23
2023-10-21T22:27:18.292Z,28.17
2023-10-21T22:30:20.373Z,23.98
2023-10-21T22:33:22.871Z,22.42
2023-10-21T22:36:25.164Z,28.38
2023-10-21T22:39:27.457Z,20.55
2023-10-21T22:42:29.760Z,16.70
2023-10-21T22:45:34.246Z,18.75
2023-10-21T22:48:37.277Z,16.17
2023-10-21T22:51:39.614Z,16.73
2023-10-21T22:54:42.732Z,6.50
2023-10-21T22:57:45.859Z,7.50
2023-10-21T23:00:48.272Z,13.15
2023-10-21T23:03:52.906Z,5.32
2023-10-21T23:06:55.191Z,5.90
2023-10-21T23:09:58.067Z,3.67
2023-10-21T23:13:00.269Z,6.07
2023-10-21T23:16:02.564Z,5.38
2023-10-21T23:19:06.733Z,6.05
2023-10-21T23:22:11.019Z,6.00
2023-10-21T23:25:15.891Z,7.57
2023-10-21T23:28:18.446Z,5.10
2023-10-21T23:31:20.833Z,5.97
2023-10-21T23:34:23.144Z,5.20
2023-10-21T23:37:25.506Z,8.93
2023-10-21T23:40:27.594Z,4.80
2023-10-21T23:43:30.209Z,7.88
2023-10-21T23:46:32.739Z,3.97
2023-10-21T23:49:35.118Z,3.80
2023-10-21T23:52:38.191Z,4.97
2023-10-21T23:55:40.219Z,3.38
2023-10-21T23:58:42.606Z,4.20
